createdAt,value
2019-04-10T00:02:26.046Z,52.21
2019-04-10T00:04:57.864Z,52.48
2019-04-10T00:07:29.763Z,52.70
2019-04-10T00:10:03.472Z,52.66
2019-04-10T00:12:35.980Z,52.36
2019-04-10T00:15:09.283Z,52.52
2019-04-10T00:17:42.930Z,52.80
2019-04-10T00:20:16.270Z,52.86
2019-04-10T00:22:48.661Z,52.84
2019-04-10T00:25:20.939Z,52.82
2019-04-10T00:27:52.752Z,52.84
2019-04-10T00:30:25.062Z,52.83
2019-04-10T00:32:56.853Z,53.02
2019-04-10T00:35:29.718Z,53.49
2019-04-10T00:38:01.736Z,53.58
2019-04-10T00:40:33.465Z,53.58
2019-04-10T00:43:06.511Z,53.59
2019-04-10T00:45:38.458Z,53.56
2019-04-10T00:48:10.377Z,53.52
2019-04-10T00:50:42.515Z,53.51
2019-04-10T00:53:14.395Z,53.34
2019-04-10T00:55:46.195Z,53.34
2019-04-10T00:58:18.331Z,53.42
2019-04-10T01:00:50.449Z,53.55
2019-04-10T01:03:40.689Z,53.55
2019-04-10T01:06:14.279Z,53.68
2019-04-10T01:08:45.944Z,53.78
2019-04-10T01:11:18.990Z,53.84
2019-04-10T01:13:51.690Z,53.93
2019-04-10T01:16:23.571Z,54.03
2019-04-10T01:18:55.523Z,54.15
2019-04-10T01:21:28.447Z,54.08
2019-04-10T01:24:01.465Z,54.22
2019-04-10T01:26:33.255Z,54.18
2019-04-10T01:29:05.219Z,54.29
2019-04-10T01:31:37.289Z,54.22
2019-04-10T01:34:09.469Z,54.08
2019-04-10T01:36:41.480Z,53.99
2019-04-10T01:39:15.875Z,54.18
2019-04-10T01:41:48.059Z,54.23
2019-04-10T01:44:20.512Z,54.26
2019-04-10T01:46:52.958Z,54.26
2019-04-10T01:49:24.702Z,54.26
2019-04-10T01:51:57.429Z,54.24
2019-04-10T01:54:29.148Z,54.27
2019-04-10T01:57:00.853Z,54.39
2019-04-10T01:59:34.155Z,54.51
2019-04-10T02:02:07.500Z,54.73
2019-04-10T02:04:39.624Z,54.83
2019-04-10T02:07:11.617Z,54.92
2019-04-10T02:09:43.566Z,55.10
2019-04-10T02:12:16.660Z,55.32
2019-04-10T02:14:48.841Z,55.46
2019-04-10T02:17:20.647Z,55.51
2019-04-10T02:19:52.239Z,55.78
2019-04-10T02:22:24.924Z,55.82
2019-04-10T02:24:57.658Z,55.98
2019-04-10T02:27:30.109Z,56.17
2019-04-10T02:30:02.411Z,56.22
2019-04-10T02:32:34.543Z,56.41
2019-04-10T02:35:10.548Z,56.59
2019-04-10T02:37:41.729Z,56.73
2019-04-10T02:40:15.053Z,56.82
2019-04-10T02:42:47.444Z,56.85
2019-04-10T02:45:19.487Z,56.86
2019-04-10T02:47:52.772Z,56.85
2019-04-10T02:50:25.268Z,56.89
2019-04-10T02:52:59.061Z,56.95
2019-04-10T02:55:31.377Z,56.98
2019-04-10T02:58:03.146Z,57.04
2019-04-10T03:00:36.017Z,57.05
2019-04-10T03:03:09.351Z,57.16
2019-04-10T03:05:42.609Z,57.29
2019-04-10T03:08:15.812Z,57.47
2019-04-10T03:10:53.728Z,57.51
2019-04-10T03:13:21.856Z,57.69
2019-04-10T03:15:53.697Z,57.87
2019-04-10T03:18:25.904Z,58.07
2019-04-10T03:20:58.448Z,58.22
2019-04-10T03:23:31.625Z,58.27
2019-04-10T03:26:03.596Z,58.34
2019-04-10T03:28:35.546Z,58.50
2019-04-10T03:31:07.979Z,58.56
2019-04-10T03:33:47.444Z,58.71
2019-04-10T03:36:19.096Z,58.93
2019-04-10T03:38:58.554Z,58.81
2019-04-10T03:41:24.149Z,58.81
2019-04-10T03:43:56.405Z,58.99
2019-04-10T03:46:28.257Z,58.93
2019-04-10T03:49:01.154Z,59.02
2019-04-10T03:51:32.988Z,59.07
2019-04-10T03:54:04.990Z,58.97
2019-04-10T03:56:38.064Z,59.08
2019-04-10T03:59:09.796Z,59.13
2019-04-10T04:01:42.978Z,59.26
2019-04-10T04:04:17.514Z,59.06
2019-04-10T04:06:53.603Z,58.98
2019-04-10T04:09:29.381Z,58.80
2019-04-10T04:12:02.386Z,58.77
2019-04-10T04:14:34.688Z,58.79
2019-04-10T04:17:06.735Z,58.50
2019-04-10T04:19:38.389Z,58.47
2019-04-10T04:22:10.526Z,58.46
2019-04-10T04:24:42.355Z,58.23
2019-04-10T04:27:15.306Z,57.94
2019-04-10T04:29:47.529Z,57.99
2019-04-10T04:32:19.671Z,57.94
2019-04-10T04:34:52.166Z,57.59
2019-04-10T04:37:25.769Z,57.57
2019-04-10T04:39:58.355Z,57.75
2019-04-10T04:42:30.713Z,57.43
2019-04-10T04:45:03.087Z,57.29
2019-04-10T04:47:35.649Z,57.38
2019-04-10T04:50:07.779Z,57.18
2019-04-10T04:52:39.548Z,56.92
2019-04-10T04:55:12.233Z,57.06
2019-04-10T04:57:44.967Z,56.83
2019-04-10T05:00:17.452Z,56.58
2019-04-10T05:02:49.631Z,56.64
2019-04-10T05:05:21.494Z,56.76
2019-04-10T05:07:59.273Z,56.56
2019-04-10T05:10:26.559Z,56.64
2019-04-10T05:12:58.612Z,56.31
2019-04-10T05:15:31.094Z,56.31
2019-04-10T05:18:04.061Z,56.25
2019-04-10T05:20:44.226Z,56.01
2019-04-10T05:23:10.273Z,55.99
2019-04-10T05:25:42.008Z,55.79
2019-04-10T05:28:13.670Z,55.56
2019-04-10T05:30:45.522Z,55.15
2019-04-10T05:33:17.381Z,55.32
2019-04-10T05:35:49.351Z,55.17
2019-04-10T05:38:21.509Z,54.35
2019-04-10T05:40:53.171Z,54.18
2019-04-10T05:43:26.006Z,53.98
2019-04-10T05:45:57.601Z,53.77
2019-04-10T05:48:29.662Z,53.54
2019-04-10T05:51:05.635Z,53.18
2019-04-10T05:53:35.143Z,52.84
2019-04-10T05:56:07.090Z,52.49
2019-04-10T05:58:39.058Z,52.38
2019-04-10T06:01:11.543Z,51.93
2019-04-10T06:03:43.572Z,51.58
2019-04-10T06:06:15.156Z,51.27
2019-04-10T06:08:47.058Z,51.00
2019-04-10T06:11:18.865Z,50.44
2019-04-10T06:13:50.822Z,49.98
2019-04-10T06:16:22.479Z,49.43
2019-04-10T06:18:55.539Z,49.22
2019-04-10T06:21:28.482Z,49.02
2019-04-10T06:24:00.412Z,49.05
2019-04-10T06:26:32.721Z,48.62
2019-04-10T06:29:06.798Z,48.16
2019-04-10T06:31:39.074Z,48.07
2019-04-10T06:34:13.824Z,47.82
2019-04-10T06:36:44.434Z,47.76
2019-04-10T06:39:16.609Z,47.55
2019-04-10T06:41:48.781Z,47.23
2019-04-10T06:44:21.777Z,47.09
2019-04-10T06:46:54.975Z,46.89
2019-04-10T06:49:26.968Z,46.24
2019-04-10T06:51:59.686Z,46.28
2019-04-10T06:54:31.451Z,45.67
2019-04-10T06:57:03.089Z,45.19
2019-04-10T06:59:34.967Z,45.06
2019-04-10T07:02:17.707Z,44.69
2019-04-10T07:04:45.986Z,44.53
2019-04-10T07:07:18.122Z,44.06
2019-04-10T07:09:49.602Z,43.68
2019-04-10T07:12:24.405Z,43.92
2019-04-10T07:14:58.201Z,43.47
2019-04-10T07:17:29.439Z,43.18
2019-04-10T07:20:01.985Z,43.43
2019-04-10T07:22:33.669Z,43.18
2019-04-10T07:25:09.307Z,43.38
2019-04-10T07:27:41.458Z,43.87
2019-04-10T07:30:14.885Z,43.45
2019-04-10T07:32:49.012Z,43.16
2019-04-10T07:35:21.812Z,42.83
2019-04-10T07:37:56.682Z,41.92
2019-04-10T07:40:37.165Z,42.09
2019-04-10T07:43:09.069Z,41.67
2019-04-10T07:45:41.614Z,41.23
2019-04-10T07:48:13.358Z,40.26
2019-04-10T07:50:46.971Z,40.05
2019-04-10T07:53:18.939Z,40.12
2019-04-10T07:56:02.321Z,39.02
2019-04-10T07:58:24.076Z,38.63
2019-04-10T08:00:56.759Z,38.83
2019-04-10T08:03:28.848Z,39.66
2019-04-10T08:06:02.303Z,39.83
2019-04-10T08:08:34.131Z,39.96
2019-04-10T08:11:07.166Z,40.41
2019-04-10T08:13:38.841Z,40.69
2019-04-10T08:16:10.690Z,40.76
2019-04-10T08:18:43.474Z,40.76
2019-04-10T08:21:15.610Z,40.63
2019-04-10T08:23:48.508Z,40.14
2019-04-10T08:26:21.349Z,39.55
2019-04-10T08:28:53.792Z,39.51
2019-04-10T08:31:25.522Z,39.46
2019-04-10T08:33:57.178Z,39.39
2019-04-10T08:36:29.678Z,38.76
2019-04-10T08:39:02.421Z,38.69
2019-04-10T08:41:35.138Z,38.20
2019-04-10T08:44:06.811Z,37.57
2019-04-10T08:46:38.427Z,37.41
2019-04-10T08:49:10.281Z,37.59
2019-04-10T08:51:41.880Z,37.41
2019-04-10T08:54:14.104Z,37.14
2019-04-10T08:56:46.980Z,36.74
2019-04-10T08:59:19.315Z,36.20
2019-04-10T09:01:50.845Z,34.82
2019-04-10T09:04:22.463Z,34.96
2019-04-10T09:06:54.338Z,35.33
2019-04-10T09:09:26.187Z,34.47
2019-04-10T09:11:57.946Z,34.72
2019-04-10T09:14:29.883Z,34.72
2019-04-10T09:17:02.819Z,35.10
2019-04-10T09:19:34.663Z,34.73
2019-04-10T09:22:06.415Z,35.11
2019-04-10T09:24:38.393Z,35.08
2019-04-10T09:27:10.956Z,34.79
2019-04-10T09:29:42.906Z,34.70
2019-04-10T09:32:14.972Z,34.96
2019-04-10T09:34:48.122Z,34.86
2019-04-10T09:37:20.132Z,34.83
2019-04-10T09:39:53.445Z,34.44
2019-04-10T09:42:25.634Z,34.10
2019-04-10T09:44:57.475Z,34.01
2019-04-10T09:47:30.316Z,34.08
2019-04-10T09:50:02.409Z,34.31
2019-04-10T09:52:35.621Z,34.36
2019-04-10T09:55:08.106Z,34.47
2019-04-10T09:57:40.665Z,33.85
2019-04-10T10:00:14.032Z,34.40
2019-04-10T10:02:47.432Z,34.24
2019-04-10T10:05:20.258Z,34.44
2019-04-10T10:07:54.468Z,34.47
2019-04-10T10:10:25.839Z,34.76
2019-04-10T10:12:57.552Z,34.67
2019-04-10T10:15:29.389Z,34.72
2019-04-10T10:18:01.456Z,34.92
2019-04-10T10:20:35.614Z,35.03
2019-04-10T10:23:07.567Z,34.74
2019-04-10T10:25:39.467Z,34.89
2019-04-10T10:28:11.848Z,34.78
2019-04-10T10:30:43.998Z,34.29
2019-04-10T10:33:15.721Z,33.81
2019-04-10T10:35:49.503Z,33.13
2019-04-10T10:38:21.454Z,33.28
2019-04-10T10:40:53.109Z,32.67
2019-04-10T10:43:25.179Z,32.34
2019-04-10T10:45:56.940Z,31.99
2019-04-10T10:48:29.579Z,32.08
2019-04-10T10:51:02.427Z,32.19
2019-04-10T10:53:34.595Z,32.50
2019-04-10T10:56:06.438Z,32.46
2019-04-10T10:58:38.075Z,32.18
2019-04-10T11:01:09.972Z,32.10
2019-04-10T11:03:42.570Z,31.15
2019-04-10T11:06:14.966Z,29.50
2019-04-10T11:08:47.842Z,30.11
2019-04-10T11:11:20.034Z,29.83
2019-04-10T11:13:51.739Z,29.88
2019-04-10T11:16:23.554Z,30.02
2019-04-10T11:18:55.209Z,29.57
2019-04-10T11:21:27.452Z,29.51
2019-04-10T11:24:01.022Z,29.56
2019-04-10T11:26:33.646Z,29.38
2019-04-10T11:29:05.713Z,29.84
2019-04-10T11:31:39.609Z,29.40
2019-04-10T11:34:11.481Z,29.36
2019-04-10T11:36:44.055Z,29.08
2019-04-10T11:39:23.371Z,29.79
2019-04-10T11:41:50.559Z,30.15
2019-04-10T11:44:22.298Z,29.48
2019-04-10T11:46:55.641Z,29.06
2019-04-10T11:49:29.534Z,29.08
2019-04-10T11:52:03.111Z,28.95
2019-04-10T11:54:40.359Z,28.48
2019-04-10T11:57:09.948Z,28.56
2019-04-10T11:59:41.257Z,28.21
2019-04-10T12:02:14.426Z,28.50
2019-04-10T12:04:53.876Z,28.55
2019-04-10T12:07:52.639Z,28.69
2019-04-10T12:12:27.893Z,28.68
2019-04-10T12:15:01.582Z,28.60
2019-04-10T12:17:35.998Z,28.62
2019-04-10T12:20:08.956Z,28.85
2019-04-10T12:22:40.755Z,29.08
2019-04-10T12:25:12.940Z,29.17
2019-04-10T12:27:45.347Z,29.29
2019-04-10T12:30:17.713Z,29.83
2019-04-10T12:32:49.369Z,29.33
2019-04-10T12:35:20.931Z,29.06
2019-04-10T12:38:02.254Z,29.27
2019-04-10T12:40:26.669Z,29.15
2019-04-10T12:42:58.809Z,29.47
2019-04-10T12:45:30.799Z,29.48
2019-04-10T12:48:02.652Z,29.55
2019-04-10T12:50:34.526Z,29.65
2019-04-10T12:53:07.331Z,29.67
2019-04-10T12:55:38.973Z,29.99
2019-04-10T12:58:17.012Z,30.47
2019-04-10T13:00:44.822Z,30.46
2019-04-10T13:03:16.798Z,30.66
2019-04-10T13:05:49.395Z,31.06
2019-04-10T13:08:28.807Z,31.22
2019-04-10T13:10:56.082Z,31.05
2019-04-10T13:13:28.622Z,31.02
2019-04-10T13:16:01.484Z,31.20
2019-04-10T13:18:32.967Z,31.39
2019-04-10T13:21:04.510Z,31.76
2019-04-10T13:23:37.001Z,31.78
2019-04-10T13:26:10.895Z,31.79
2019-04-10T13:28:43.467Z,32.14
2019-04-10T13:31:15.134Z,32.07
2019-04-10T13:33:46.941Z,31.76
2019-04-10T13:36:19.674Z,31.86
2019-04-10T13:38:51.225Z,31.58
2019-04-10T13:41:24.105Z,31.72
2019-04-10T13:43:55.756Z,31.90
2019-04-10T13:46:28.941Z,31.89
2019-04-10T13:49:01.869Z,31.80
2019-04-10T13:51:33.438Z,31.87
2019-04-10T13:54:06.249Z,31.88
2019-04-10T13:56:38.025Z,31.97
2019-04-10T13:59:10.961Z,32.21
2019-04-10T14:01:43.888Z,32.43
2019-04-10T14:04:16.658Z,32.53
2019-04-10T14:06:49.302Z,34.50
2019-04-10T14:09:34.407Z,36.23
2019-04-10T14:11:54.435Z,38.80
2019-04-10T14:14:26.721Z,36.79
2019-04-10T14:16:59.324Z,37.43
2019-04-10T14:19:31.869Z,41.61
2019-04-10T14:22:03.500Z,45.03
2019-04-10T14:24:42.851Z,47.39
2019-04-10T14:27:16.266Z,48.19
2019-04-10T14:29:49.083Z,47.38
2019-04-10T14:32:25.371Z,48.84
2019-04-10T14:34:57.119Z,49.94
2019-04-10T14:37:29.551Z,48.63
2019-04-10T14:40:02.150Z,50.52
2019-04-10T14:42:34.895Z,52.70
2019-04-10T14:45:09.042Z,53.75
2019-04-10T14:47:41.323Z,54.89
2019-04-10T14:50:13.685Z,53.18
2019-04-10T14:52:45.770Z,58.02
2019-04-10T14:55:20.299Z,54.24
2019-04-10T14:57:51.028Z,58.70
2019-04-10T15:00:36.964Z,57.65
2019-04-10T15:03:08.772Z,51.92
2019-04-10T15:05:47.789Z,56.40
2019-04-10T15:08:15.505Z,59.52
2019-04-10T15:10:47.426Z,61.25
2019-04-10T15:13:21.236Z,62.15
2019-04-10T15:15:52.569Z,64.00
2019-04-10T15:18:24.664Z,62.86
2019-04-10T15:20:58.571Z,63.87
2019-04-10T15:23:30.233Z,64.30
2019-04-10T15:26:02.187Z,64.35
2019-04-10T15:28:34.028Z,63.85
2019-04-10T15:31:06.845Z,63.53
2019-04-10T15:33:39.415Z,63.58
2019-04-10T15:36:11.578Z,66.55
2019-04-10T15:38:44.262Z,59.43
2019-04-10T15:41:16.925Z,59.75
2019-04-10T15:43:50.159Z,56.65
2019-04-10T15:46:21.662Z,59.28
2019-04-10T15:48:53.423Z,59.70
2019-04-10T15:51:25.274Z,61.98
2019-04-10T15:53:57.125Z,63.19
2019-04-10T15:56:29.710Z,65.05
2019-04-10T15:59:01.370Z,66.31
2019-04-10T16:01:33.274Z,67.03
2019-04-10T16:04:05.271Z,66.56
2019-04-10T16:06:37.589Z,67.55
2019-04-10T16:09:10.445Z,67.42
2019-04-10T16:11:47.172Z,68.22
2019-04-10T16:14:23.304Z,68.72
2019-04-10T16:17:09.009Z,68.93
2019-04-10T16:19:51.367Z,69.44
2019-04-10T16:22:31.209Z,69.77
2019-04-10T16:25:05.355Z,69.59
2019-04-10T16:27:41.293Z,70.37
2019-04-10T16:30:15.960Z,69.93
2019-04-10T16:32:48.589Z,71.08
2019-04-10T16:35:21.084Z,72.59
2019-04-10T16:37:53.800Z,72.38
2019-04-10T16:40:26.957Z,71.68
2019-04-10T16:42:59.353Z,71.94
2019-04-10T16:45:31.196Z,71.88
2019-04-10T16:48:03.135Z,71.75
2019-04-10T16:50:36.400Z,71.80
2019-04-10T16:53:09.627Z,71.56
2019-04-10T16:55:43.113Z,72.11
2019-04-10T16:58:15.859Z,71.74
2019-04-10T17:00:47.749Z,71.15
2019-04-10T17:03:20.118Z,71.33
2019-04-10T17:05:53.550Z,71.38
2019-04-10T17:08:25.287Z,71.50
2019-04-10T17:10:58.808Z,71.43
2019-04-10T17:13:30.818Z,70.25
2019-04-10T17:16:02.593Z,69.67
2019-04-10T17:18:35.038Z,69.57
2019-04-10T17:21:06.788Z,69.55
2019-04-10T17:23:38.700Z,69.56
2019-04-10T17:26:10.798Z,68.74
2019-04-10T17:28:42.782Z,68.57
2019-04-10T17:31:16.138Z,67.90
2019-04-10T17:33:50.107Z,68.06
2019-04-10T17:36:22.962Z,68.27
2019-04-10T17:38:55.228Z,68.46
2019-04-10T17:41:28.277Z,68.44
2019-04-10T17:44:02.045Z,68.85
2019-04-10T17:46:33.628Z,68.69
2019-04-10T17:49:05.789Z,68.47
2019-04-10T17:51:38.467Z,68.46
2019-04-10T17:54:11.777Z,67.90
2019-04-10T17:56:44.408Z,67.51
2019-04-10T17:59:16.273Z,67.49
2019-04-10T18:01:47.906Z,67.35
2019-04-10T18:04:20.076Z,67.33
2019-04-10T18:06:52.867Z,67.51
2019-04-10T18:09:26.108Z,67.27
2019-04-10T18:12:00.549Z,67.24
2019-04-10T18:14:31.345Z,67.35
2019-04-10T18:17:03.101Z,67.50
2019-04-10T18:19:34.959Z,67.82
2019-04-10T18:22:06.805Z,67.62
2019-04-10T18:24:38.376Z,67.49
2019-04-10T18:27:12.250Z,67.03
2019-04-10T18:29:45.283Z,66.95
2019-04-10T18:32:17.920Z,66.51
2019-04-10T18:34:50.040Z,66.75
2019-04-10T18:37:24.834Z,66.56
2019-04-10T18:39:54.943Z,66.48
2019-04-10T18:42:26.750Z,66.63
2019-04-10T18:44:59.494Z,66.74
2019-04-10T18:47:32.308Z,66.90
2019-04-10T18:50:05.614Z,66.85
2019-04-10T18:52:37.492Z,67.27
2019-04-10T18:55:09.279Z,67.35
2019-04-10T18:57:41.122Z,66.88
2019-04-10T19:00:15.766Z,67.13
2019-04-10T19:02:57.077Z,66.76
2019-04-10T19:05:31.906Z,67.12
2019-04-10T19:08:03.640Z,67.19
2019-04-10T19:10:36.774Z,67.25
2019-04-10T19:13:09.564Z,67.11
2019-04-10T19:15:41.746Z,66.77
2019-04-10T19:18:13.539Z,65.70
2019-04-10T19:20:45.097Z,66.18
2019-04-10T19:23:17.265Z,65.80
2019-04-10T19:25:49.181Z,66.10
2019-04-10T19:28:30.017Z,66.58
2019-04-10T19:31:12.835Z,66.65
2019-04-10T19:33:39.420Z,66.61
2019-04-10T19:36:11.976Z,67.68
2019-04-10T19:38:43.682Z,68.28
2019-04-10T19:41:25.210Z,68.86
2019-04-10T19:43:48.742Z,69.18
2019-04-10T19:46:21.558Z,69.16
2019-04-10T19:48:53.606Z,69.00
2019-04-10T19:51:25.900Z,69.13
2019-04-10T19:53:57.818Z,69.43
2019-04-10T19:56:30.678Z,70.22
2019-04-10T19:59:02.930Z,68.46
2019-04-10T20:01:34.535Z,69.40
2019-04-10T20:04:06.471Z,70.00
2019-04-10T20:06:38.607Z,70.27
2019-04-10T20:09:10.697Z,69.59
2019-04-10T20:11:48.633Z,70.78
2019-04-10T20:14:16.843Z,70.42
2019-04-10T20:16:49.383Z,70.43
2019-04-10T20:19:21.066Z,70.51
2019-04-10T20:21:52.768Z,70.85
2019-04-10T20:24:25.068Z,70.76
2019-04-10T20:26:56.901Z,70.37
2019-04-10T20:29:28.894Z,70.22
2019-04-10T20:32:01.649Z,70.79
2019-04-10T20:34:33.696Z,70.06
2019-04-10T20:37:09.258Z,70.37
2019-04-10T20:39:39.219Z,70.01
2019-04-10T20:42:11.007Z,70.39
2019-04-10T20:44:43.065Z,69.80
2019-04-10T20:47:15.764Z,69.93
2019-04-10T20:49:47.935Z,69.96
2019-04-10T20:52:19.993Z,70.04
2019-04-10T20:54:51.762Z,70.28
2019-04-10T20:57:23.781Z,70.42
2019-04-10T20:59:55.685Z,70.31
2019-04-10T21:02:28.519Z,70.59
2019-04-10T21:05:05.787Z,70.65
2019-04-10T21:07:33.924Z,70.88
2019-04-10T21:10:08.548Z,71.20
2019-04-10T21:12:40.314Z,71.34
2019-04-10T21:15:13.190Z,71.04
2019-04-10T21:17:44.850Z,71.76
2019-04-10T21:20:16.717Z,71.57
2019-04-10T21:22:49.346Z,71.47
2019-04-10T21:25:21.219Z,71.63
2019-04-10T21:27:54.655Z,71.20
2019-04-10T21:30:31.759Z,71.43
2019-04-10T21:33:12.133Z,71.47
2019-04-10T21:35:44.157Z,71.78
2019-04-10T21:38:15.815Z,71.78
2019-04-10T21:40:47.566Z,72.01
2019-04-10T21:43:20.281Z,71.32
2019-04-10T21:45:53.024Z,71.20
2019-04-10T21:48:24.985Z,71.09
2019-04-10T21:50:56.847Z,71.17
2019-04-10T21:53:31.669Z,71.27
2019-04-10T21:56:02.308Z,71.46
2019-04-10T21:58:34.529Z,71.09
2019-04-10T22:01:08.076Z,71.24
2019-04-10T22:03:39.841Z,70.96
2019-04-10T22:06:15.685Z,71.15
2019-04-10T22:08:54.811Z,70.75
2019-04-10T22:11:26.786Z,70.78
2019-04-10T22:13:58.742Z,70.90
2019-04-10T22:16:30.701Z,70.81
2019-04-10T22:19:03.740Z,70.75
2019-04-10T22:21:35.549Z,70.94
2019-04-10T22:24:07.404Z,70.68
2019-04-10T22:26:44.471Z,70.69
2019-04-10T22:29:15.530Z,70.86
2019-04-10T22:31:47.596Z,70.95
2019-04-10T22:34:19.206Z,70.79
2019-04-10T22:36:50.800Z,71.03
2019-04-10T22:39:23.081Z,71.04
2019-04-10T22:41:54.846Z,71.09
2019-04-10T22:44:34.748Z,70.77
2019-04-10T22:47:00.885Z,70.86
2019-04-10T22:49:32.877Z,70.89
2019-04-10T22:52:04.740Z,71.09
2019-04-10T22:54:36.647Z,71.16
2019-04-10T22:57:10.370Z,71.25
2019-04-10T22:59:42.485Z,71.38
2019-04-10T23:02:16.087Z,71.17
2019-04-10T23:04:47.819Z,71.41
2019-04-10T23:07:19.878Z,71.66
2019-04-10T23:09:52.578Z,71.55
2019-04-10T23:12:24.481Z,71.88
2019-04-10T23:14:55.968Z,71.83
2019-04-10T23:17:28.539Z,71.84
2019-04-10T23:20:00.697Z,71.73
2019-04-10T23:22:33.494Z,71.65
2019-04-10T23:25:07.972Z,71.58
2019-04-10T23:27:39.928Z,71.43
2019-04-10T23:30:13.490Z,71.60
2019-04-10T23:32:45.794Z,71.31
2019-04-10T23:35:19.018Z,71.65
2019-04-10T23:37:51.097Z,71.84
2019-04-10T23:40:23.082Z,71.67
2019-04-10T23:43:05.808Z,71.79
2019-04-10T23:45:29.459Z,71.78
2019-04-10T23:48:01.448Z,72.24
2019-04-10T23:50:34.413Z,72.18
2019-04-10T23:53:06.553Z,72.36
2019-04-10T23:55:38.578Z,72.15
2019-04-10T23:58:10.637Z,72.58
